Main page
METAR-TAF:

METAR-TAF

Airports :

Topeka Regional Airport

Topeka, Kansas, United States

latitude: 38-56-29N, longitude: 095-39-02W, elevation: 1079 ft

Current weather observation

The report was made 1 hour and 1 minutes ago, at 22:53 UTC
Wind 3 mph from the Southwest
Temperature 73°F
Humidity 36%
Pressure 29.87 in. Hg
Visibility: 10 miles
Clear sky

METAR: KFOE 222253Z 22003KT 10SM CLR 23/07 A2987 RMK AO2 SLP108 T02330072 $

Time: 18:54 (23:54 UTC)

Forecast

The report was made 34 minutes ago, at 23:20 UTC
Forecast valid from 23 at 00 UTC to 23 at 24 UTC
Wind 7 mph from the South/Southeast
Visibility: 6 miles
Few clouds at a height of 6000 ft
From 23 at 1700 UTC
Wind 14 mph from the South/Southeast
Visibility: 6 miles
Scattered clouds at a height of 4000 ft

TAF: KFOE 222320Z 2300/2324 16006KT P6SM FEW060 FM231700 16012KT P6SM SCT040

Weather observations and forecasts of more than 4000 airports (METAR and TAF reports).

The available stations are represented by yellow and red dots on the map.

Hover mouse over dot to see the name of the station.

Then click to see weather observations and forecasts.

To change the map : click on the green buttons with a black cross to zoom in, on the green button with a dash to zoom out, or on the green arrows for adjacent maps.


METAR-TAF: